sensor_id;sensor_type;location;lat;lon;timestamp;temperature;humidity
49731;DHT22;35622;52.008;5.426;2023-04-23T00:01:47;9.30;99.90
49731;DHT22;35622;52.008;5.426;2023-04-23T00:04:14;9.40;99.90
49731;DHT22;35622;52.008;5.426;2023-04-23T00:06:45;9.40;99.90
49731;DHT22;35622;52.008;5.426;2023-04-23T00:09:12;9.40;99.90
49731;DHT22;35622;52.008;5.426;2023-04-23T00:11:39;9.30;99.90
49731;DHT22;35622;52.008;5.426;2023-04-23T00:14:05;9.30;99.90
49731;DHT22;35622;52.008;5.426;2023-04-23T00:16:31;9.10;99.90
49731;DHT22;35622;52.008;5.426;2023-04-23T00:18:56;9.10;99.90
49731;DHT22;35622;52.008;5.426;2023-04-23T00:21:22;9.10;99.90
49731;DHT22;35622;52.008;5.426;2023-04-23T00:23:47;9.00;99.90
49731;DHT22;35622;52.008;5.426;2023-04-23T00:26:13;9.10;99.90
49731;DHT22;35622;52.008;5.426;2023-04-23T00:28:39;9.00;99.90
49731;DHT22;35622;52.008;5.426;2023-04-23T00:31:04;9.10;99.90
49731;DHT22;35622;52.008;5.426;2023-04-23T00:33:30;9.10;99.90
49731;DHT22;35622;52.008;5.426;2023-04-23T00:35:56;9.10;99.90
49731;DHT22;35622;52.008;5.426;2023-04-23T00:38:21;9.00;99.90
49731;DHT22;35622;52.008;5.426;2023-04-23T00:40:47;8.90;99.90
49731;DHT22;35622;52.008;5.426;2023-04-23T00:43:13;9.00;99.90
49731;DHT22;35622;52.008;5.426;2023-04-23T00:45:39;8.90;99.90
49731;DHT22;35622;52.008;5.426;2023-04-23T00:48:06;8.90;99.90
49731;DHT22;35622;52.008;5.426;2023-04-23T00:50:32;9.00;99.90
49731;DHT22;35622;52.008;5.426;2023-04-23T00:52:58;8.80;99.90
49731;DHT22;35622;52.008;5.426;2023-04-23T00:55:24;8.80;99.90
49731;DHT22;35622;52.008;5.426;2023-04-23T00:57:49;8.80;99.90
49731;DHT22;35622;52.008;5.426;2023-04-23T01:00:15;8.80;99.90
49731;DHT22;35622;52.008;5.426;2023-04-23T01:02:42;8.80;99.90
49731;DHT22;35622;52.008;5.426;2023-04-23T01:05:09;9.00;99.90
49731;DHT22;35622;52.008;5.426;2023-04-23T01:07:36;8.90;99.90
49731;DHT22;35622;52.008;5.426;2023-04-23T01:10:03;9.00;99.90
49731;DHT22;35622;52.008;5.426;2023-04-23T01:12:30;8.90;99.90
49731;DHT22;35622;52.008;5.426;2023-04-23T01:14:55;9.00;99.90
49731;DHT22;35622;52.008;5.426;2023-04-23T01:17:21;8.90;99.90
49731;DHT22;35622;52.008;5.426;2023-04-23T01:19:47;9.00;99.90
49731;DHT22;35622;52.008;5.426;2023-04-23T01:22:14;8.90;99.90
49731;DHT22;35622;52.008;5.426;2023-04-23T01:24:41;9.00;99.90
49731;DHT22;35622;52.008;5.426;2023-04-23T01:27:10;8.90;99.90
49731;DHT22;35622;52.008;5.426;2023-04-23T01:29:37;8.90;99.90
49731;DHT22;35622;52.008;5.426;2023-04-23T01:32:03;9.00;99.90
49731;DHT22;35622;52.008;5.426;2023-04-23T01:34:30;9.10;99.90
49731;DHT22;35622;52.008;5.426;2023-04-23T01:36:57;9.20;99.90
49731;DHT22;35622;52.008;5.426;2023-04-23T01:39:23;9.40;99.90
49731;DHT22;35622;52.008;5.426;2023-04-23T01:41:49;9.50;99.90
49731;DHT22;35622;52.008;5.426;2023-04-23T01:44:15;9.40;99.90
49731;DHT22;35622;52.008;5.426;2023-04-23T01:46:41;9.50;99.90
49731;DHT22;35622;52.008;5.426;2023-04-23T01:49:07;9.50;99.90
49731;DHT22;35622;52.008;5.426;2023-04-23T01:51:33;9.60;99.90
49731;DHT22;35622;52.008;5.426;2023-04-23T01:53:59;9.60;99.90
49731;DHT22;35622;52.008;5.426;2023-04-23T01:56:26;9.70;99.90
49731;DHT22;35622;52.008;5.426;2023-04-23T01:58:52;9.70;99.90
49731;DHT22;35622;52.008;5.426;2023-04-23T02:01:17;9.80;99.90
49731;DHT22;35622;52.008;5.426;2023-04-23T02:03:44;10.00;99.90
49731;DHT22;35622;52.008;5.426;2023-04-23T02:06:10;10.00;99.90
49731;DHT22;35622;52.008;5.426;2023-04-23T02:08:37;10.00;99.90
49731;DHT22;35622;52.008;5.426;2023-04-23T02:11:04;10.00;99.90
49731;DHT22;35622;52.008;5.426;2023-04-23T02:13:31;10.10;99.90
49731;DHT22;35622;52.008;5.426;2023-04-23T02:15:56;10.10;99.90
49731;DHT22;35622;52.008;5.426;2023-04-23T02:18:22;10.10;99.90
49731;DHT22;35622;52.008;5.426;2023-04-23T02:20:47;10.10;99.90
49731;DHT22;35622;52.008;5.426;2023-04-23T02:23:13;10.20;99.90
49731;DHT22;35622;52.008;5.426;2023-04-23T02:25:39;10.20;99.90
49731;DHT22;35622;52.008;5.426;2023-04-23T02:28:05;10.20;99.90
49731;DHT22;35622;52.008;5.426;2023-04-23T02:30:33;10.30;99.90
49731;DHT22;35622;52.008;5.426;2023-04-23T02:32:59;10.30;99.90
49731;DHT22;35622;52.008;5.426;2023-04-23T02:35:25;10.40;99.90
49731;DHT22;35622;52.008;5.426;2023-04-23T02:37:52;10.40;99.90
49731;DHT22;35622;52.008;5.426;2023-04-23T02:40:18;10.40;99.90
49731;DHT22;35622;52.008;5.426;2023-04-23T02:42:44;10.40;99.90
49731;DHT22;35622;52.008;5.426;2023-04-23T02:45:10;10.40;99.90
49731;DHT22;35622;52.008;5.426;2023-04-23T02:47:36;10.30;99.90
49731;DHT22;35622;52.008;5.426;2023-04-23T02:50:03;10.40;99.90
49731;DHT22;35622;52.008;5.426;2023-04-23T02:52:31;10.40;99.90
49731;DHT22;35622;52.008;5.426;2023-04-23T02:54:56;10.40;99.90
49731;DHT22;35622;52.008;5.426;2023-04-23T02:57:22;10.50;99.90
49731;DHT22;35622;52.008;5.426;2023-04-23T02:59:48;10.40;99.90
49731;DHT22;35622;52.008;5.426;2023-04-23T03:02:14;10.50;99.90
49731;DHT22;35622;52.008;5.426;2023-04-23T03:04:40;10.50;99.90
49731;DHT22;35622;52.008;5.426;2023-04-23T03:07:06;10.40;99.90
49731;DHT22;35622;52.008;5.426;2023-04-23T03:09:31;10.40;99.90
49731;DHT22;35622;52.008;5.426;2023-04-23T03:11:57;10.30;99.90
49731;DHT22;35622;52.008;5.426;2023-04-23T03:14:23;10.30;99.90
49731;DHT22;35622;52.008;5.426;2023-04-23T03:16:48;10.30;99.90
49731;DHT22;35622;52.008;5.426;2023-04-23T03:19:14;10.30;99.90
49731;DHT22;35622;52.008;5.426;2023-04-23T03:21:39;10.30;99.90
49731;DHT22;35622;52.008;5.426;2023-04-23T03:24:05;10.30;99.90
49731;DHT22;35622;52.008;5.426;2023-04-23T03:26:31;10.30;99.90
49731;DHT22;35622;52.008;5.426;2023-04-23T03:28:56;10.30;99.90
49731;DHT22;35622;52.008;5.426;2023-04-23T03:31:22;10.30;99.90
49731;DHT22;35622;52.008;5.426;2023-04-23T03:33:48;10.20;99.90
49731;DHT22;35622;52.008;5.426;2023-04-23T03:36:13;10.20;99.90
49731;DHT22;35622;52.008;5.426;2023-04-23T03:38:40;10.00;99.90
49731;DHT22;35622;52.008;5.426;2023-04-23T03:41:05;10.10;99.90
49731;DHT22;35622;52.008;5.426;2023-04-23T03:43:31;10.10;99.90
49731;DHT22;35622;52.008;5.426;2023-04-23T03:45:56;10.00;99.90
49731;DHT22;35622;52.008;5.426;2023-04-23T03:48:22;10.00;99.90
49731;DHT22;35622;52.008;5.426;2023-04-23T03:50:48;10.00;99.90
49731;DHT22;35622;52.008;5.426;2023-04-23T03:53:13;10.00;99.90
49731;DHT22;35622;52.008;5.426;2023-04-23T03:55:39;10.00;99.90
49731;DHT22;35622;52.008;5.426;2023-04-23T03:58:05;9.90;99.90
49731;DHT22;35622;52.008;5.426;2023-04-23T04:00:30;9.80;99.90
49731;DHT22;35622;52.008;5.426;2023-04-23T04:02:56;9.90;99.90
49731;DHT22;35622;52.008;5.426;2023-04-23T04:05:22;9.80;99.90
49731;DHT22;35622;52.008;5.426;2023-04-23T04:07:47;9.60;99.90
49731;DHT22;35622;52.008;5.426;2023-04-23T04:10:13;9.60;99.90
49731;DHT22;35622;52.008;5.426;2023-04-23T04:12:38;9.50;99.90
49731;DHT22;35622;52.008;5.426;2023-04-23T04:15:05;9.50;99.90
49731;DHT22;35622;52.008;5.426;2023-04-23T04:17:31;9.60;99.90
49731;DHT22;35622;52.008;5.426;2023-04-23T04:19:57;9.40;99.90
49731;DHT22;35622;52.008;5.426;2023-04-23T04:22:22;9.50;99.90
49731;DHT22;35622;52.008;5.426;2023-04-23T04:24:48;9.40;99.90
49731;DHT22;35622;52.008;5.426;2023-04-23T04:27:16;9.40;99.90
49731;DHT22;35622;52.008;5.426;2023-04-23T04:29:42;9.30;99.90
49731;DHT22;35622;52.008;5.426;2023-04-23T04:32:08;9.10;99.90
49731;DHT22;35622;52.008;5.426;2023-04-23T04:34:34;9.10;99.90
49731;DHT22;35622;52.008;5.426;2023-04-23T04:37:03;9.20;99.90
49731;DHT22;35622;52.008;5.426;2023-04-23T04:39:29;9.10;99.90
49731;DHT22;35622;52.008;5.426;2023-04-23T04:41:55;9.10;99.90
49731;DHT22;35622;52.008;5.426;2023-04-23T04:44:21;9.20;99.90
49731;DHT22;35622;52.008;5.426;2023-04-23T04:46:47;9.20;99.90
49731;DHT22;35622;52.008;5.426;2023-04-23T04:49:13;9.30;99.90
49731;DHT22;35622;52.008;5.426;2023-04-23T04:51:39;9.30;99.90
49731;DHT22;35622;52.008;5.426;2023-04-23T04:54:06;9.40;99.90
49731;DHT22;35622;52.008;5.426;2023-04-23T04:56:33;9.40;99.90
49731;DHT22;35622;52.008;5.426;2023-04-23T04:58:59;9.50;99.90
49731;DHT22;35622;52.008;5.426;2023-04-23T05:01:26;9.60;99.90
49731;DHT22;35622;52.008;5.426;2023-04-23T05:03:52;9.50;99.90
49731;DHT22;35622;52.008;5.426;2023-04-23T05:06:18;9.60;99.90
49731;DHT22;35622;52.008;5.426;2023-04-23T05:08:43;9.60;99.90
49731;DHT22;35622;52.008;5.426;2023-04-23T05:11:13;9.60;99.90
49731;DHT22;35622;52.008;5.426;2023-04-23T05:13:39;9.60;99.90
49731;DHT22;35622;52.008;5.426;2023-04-23T05:16:05;9.60;99.90
49731;DHT22;35622;52.008;5.426;2023-04-23T05:18:31;9.60;99.90
49731;DHT22;35622;52.008;5.426;2023-04-23T05:20:56;9.60;99.90
49731;DHT22;35622;52.008;5.426;2023-04-23T05:23:22;9.60;99.90
49731;DHT22;35622;52.008;5.426;2023-04-23T05:25:48;9.70;99.90
49731;DHT22;35622;52.008;5.426;2023-04-23T05:28:16;9.60;99.90
49731;DHT22;35622;52.008;5.426;2023-04-23T05:30:42;9.60;99.90
49731;DHT22;35622;52.008;5.426;2023-04-23T05:33:07;9.50;99.90
49731;DHT22;35622;52.008;5.426;2023-04-23T05:35:33;9.60;99.90
49731;DHT22;35622;52.008;5.426;2023-04-23T05:37:58;9.70;99.90
49731;DHT22;35622;52.008;5.426;2023-04-23T05:40:25;9.80;99.90
49731;DHT22;35622;52.008;5.426;2023-04-23T05:42:51;10.00;99.90
49731;DHT22;35622;52.008;5.426;2023-04-23T05:45:16;10.20;99.90
49731;DHT22;35622;52.008;5.426;2023-04-23T05:47:42;10.90;99.90
49731;DHT22;35622;52.008;5.426;2023-04-23T05:50:08;11.60;99.90
49731;DHT22;35622;52.008;5.426;2023-04-23T05:52:36;12.00;99.90
49731;DHT22;35622;52.008;5.426;2023-04-23T05:55:01;12.10;99.90
49731;DHT22;35622;52.008;5.426;2023-04-23T05:57:27;12.10;99.90
49731;DHT22;35622;52.008;5.426;2023-04-23T05:59:53;12.10;99.90
49731;DHT22;35622;52.008;5.426;2023-04-23T06:02:18;12.20;99.90
49731;DHT22;35622;52.008;5.426;2023-04-23T06:04:44;12.80;99.90
49731;DHT22;35622;52.008;5.426;2023-04-23T06:07:10;13.20;99.90
49731;DHT22;35622;52.008;5.426;2023-04-23T06:09:36;13.10;99.90
49731;DHT22;35622;52.008;5.426;2023-04-23T06:12:02;13.20;99.90
49731;DHT22;35622;52.008;5.426;2023-04-23T06:14:28;13.30;99.90
49731;DHT22;35622;52.008;5.426;2023-04-23T06:16:54;13.20;99.90
49731;DHT22;35622;52.008;5.426;2023-04-23T06:19:19;13.30;99.90
49731;DHT22;35622;52.008;5.426;2023-04-23T06:21:45;13.80;99.90
49731;DHT22;35622;52.008;5.426;2023-04-23T06:24:10;14.20;99.90
49731;DHT22;35622;52.008;5.426;2023-04-23T06:26:36;14.50;99.90
49731;DHT22;35622;52.008;5.426;2023-04-23T06:29:01;15.40;99.90
49731;DHT22;35622;52.008;5.426;2023-04-23T06:31:27;16.20;95.90
49731;DHT22;35622;52.008;5.426;2023-04-23T06:33:53;16.80;93.30
49731;DHT22;35622;52.008;5.426;2023-04-23T06:36:19;16.70;92.80
49731;DHT22;35622;52.008;5.426;2023-04-23T06:38:44;16.80;93.20
49731;DHT22;35622;52.008;5.426;2023-04-23T06:41:10;17.50;92.50
49731;DHT22;35622;52.008;5.426;2023-04-23T06:43:37;17.80;90.40
49731;DHT22;35622;52.008;5.426;2023-04-23T06:46:02;18.20;89.80
49731;DHT22;35622;52.008;5.426;2023-04-23T06:48:28;18.70;87.00
49731;DHT22;35622;52.008;5.426;2023-04-23T06:50:53;19.00;83.30
49731;DHT22;35622;52.008;5.426;2023-04-23T06:53:20;19.30;83.90
49731;DHT22;35622;52.008;5.426;2023-04-23T06:55:45;19.50;81.00
49731;DHT22;35622;52.008;5.426;2023-04-23T06:58:11;20.00;77.40
49731;DHT22;35622;52.008;5.426;2023-04-23T07:00:37;20.10;75.00
49731;DHT22;35622;52.008;5.426;2023-04-23T07:03:02;20.20;74.10
49731;DHT22;35622;52.008;5.426;2023-04-23T07:05:28;20.40;71.80
49731;DHT22;35622;52.008;5.426;2023-04-23T07:07:53;20.40;73.70
49731;DHT22;35622;52.008;5.426;2023-04-23T07:10:19;20.80;72.60
49731;DHT22;35622;52.008;5.426;2023-04-23T07:12:45;21.10;70.40
49731;DHT22;35622;52.008;5.426;2023-04-23T07:15:10;21.30;71.50
49731;DHT22;35622;52.008;5.426;2023-04-23T07:17:36;21.30;69.20
49731;DHT22;35622;52.008;5.426;2023-04-23T07:20:02;21.00;71.10
49731;DHT22;35622;52.008;5.426;2023-04-23T07:22:31;21.40;68.10
49731;DHT22;35622;52.008;5.426;2023-04-23T07:24:57;21.70;68.70
49731;DHT22;35622;52.008;5.426;2023-04-23T07:27:23;21.80;67.60
49731;DHT22;35622;52.008;5.426;2023-04-23T07:29:48;22.10;66.50
49731;DHT22;35622;52.008;5.426;2023-04-23T07:32:14;22.00;65.70
49731;DHT22;35622;52.008;5.426;2023-04-23T07:34:39;22.30;63.90
49731;DHT22;35622;52.008;5.426;2023-04-23T07:37:05;22.30;65.20
49731;DHT22;35622;52.008;5.426;2023-04-23T07:39:31;22.10;66.40
49731;DHT22;35622;52.008;5.426;2023-04-23T07:41:57;22.20;66.60
49731;DHT22;35622;52.008;5.426;2023-04-23T07:44:22;21.90;63.80
49731;DHT22;35622;52.008;5.426;2023-04-23T07:46:48;21.70;64.70
49731;DHT22;35622;52.008;5.426;2023-04-23T07:49:14;21.70;65.60
49731;DHT22;35622;52.008;5.426;2023-04-23T07:51:39;21.90;64.80
49731;DHT22;35622;52.008;5.426;2023-04-23T07:54:06;22.10;60.90
49731;DHT22;35622;52.008;5.426;2023-04-23T07:56:32;22.40;61.90
49731;DHT22;35622;52.008;5.426;2023-04-23T07:58:58;22.70;61.70
49731;DHT22;35622;52.008;5.426;2023-04-23T08:01:25;22.70;59.00
49731;DHT22;35622;52.008;5.426;2023-04-23T08:03:50;23.20;60.30
49731;DHT22;35622;52.008;5.426;2023-04-23T08:06:16;23.50;55.70
49731;DHT22;35622;52.008;5.426;2023-04-23T08:08:43;23.70;57.40
49731;DHT22;35622;52.008;5.426;2023-04-23T08:11:09;23.30;57.50
49731;DHT22;35622;52.008;5.426;2023-04-23T08:13:35;23.90;56.90
49731;DHT22;35622;52.008;5.426;2023-04-23T08:16:01;24.00;55.50
49731;DHT22;35622;52.008;5.426;2023-04-23T08:18:27;23.70;55.40
49731;DHT22;35622;52.008;5.426;2023-04-23T08:20:53;23.90;56.20
49731;DHT22;35622;52.008;5.426;2023-04-23T08:23:19;24.20;54.70
49731;DHT22;35622;52.008;5.426;2023-04-23T08:25:44;24.20;54.00
49731;DHT22;35622;52.008;5.426;2023-04-23T08:28:10;24.20;51.60
49731;DHT22;35622;52.008;5.426;2023-04-23T08:30:35;24.40;54.30
49731;DHT22;35622;52.008;5.426;2023-04-23T08:33:01;24.30;55.10
49731;DHT22;35622;52.008;5.426;2023-04-23T08:35:27;24.70;52.30
49731;DHT22;35622;52.008;5.426;2023-04-23T08:37:52;24.50;51.00
49731;DHT22;35622;52.008;5.426;2023-04-23T08:40:18;24.10;53.90
49731;DHT22;35622;52.008;5.426;2023-04-23T08:45:18;24.30;50.80
49731;DHT22;35622;52.008;5.426;2023-04-23T08:47:44;24.20;51.80
49731;DHT22;35622;52.008;5.426;2023-04-23T08:50:11;24.90;50.50
49731;DHT22;35622;52.008;5.426;2023-04-23T08:52:40;25.00;49.00
49731;DHT22;35622;52.008;5.426;2023-04-23T08:55:08;25.30;49.90
49731;DHT22;35622;52.008;5.426;2023-04-23T08:57:39;25.30;49.20
49731;DHT22;35622;52.008;5.426;2023-04-23T09:00:09;25.50;48.60
49731;DHT22;35622;52.008;5.426;2023-04-23T09:02:37;26.10;48.40
49731;DHT22;35622;52.008;5.426;2023-04-23T09:05:04;25.60;44.70
49731;DHT22;35622;52.008;5.426;2023-04-23T09:07:29;25.30;47.70
49731;DHT22;35622;52.008;5.426;2023-04-23T09:09:55;25.10;50.20
49731;DHT22;35622;52.008;5.426;2023-04-23T09:12:21;25.10;45.70
49731;DHT22;35622;52.008;5.426;2023-04-23T09:14:48;25.50;47.10
49731;DHT22;35622;52.008;5.426;2023-04-23T09:17:14;25.80;44.40
49731;DHT22;35622;52.008;5.426;2023-04-23T09:19:40;26.00;42.70
49731;DHT22;35622;52.008;5.426;2023-04-23T09:22:07;25.60;44.10
49731;DHT22;35622;52.008;5.426;2023-04-23T09:24:33;25.80;46.10
49731;DHT22;35622;52.008;5.426;2023-04-23T09:26:59;25.40;44.00
49731;DHT22;35622;52.008;5.426;2023-04-23T09:29:25;25.70;46.10
49731;DHT22;35622;52.008;5.426;2023-04-23T09:31:55;26.10;47.20
49731;DHT22;35622;52.008;5.426;2023-04-23T09:34:22;25.80;44.80
49731;DHT22;35622;52.008;5.426;2023-04-23T09:36:51;26.00;41.70
49731;DHT22;35622;52.008;5.426;2023-04-23T09:39:20;26.00;46.40
49731;DHT22;35622;52.008;5.426;2023-04-23T09:41:46;26.50;44.50
49731;DHT22;35622;52.008;5.426;2023-04-23T09:44:13;27.10;44.30
49731;DHT22;35622;52.008;5.426;2023-04-23T09:46:42;26.50;42.70
49731;DHT22;35622;52.008;5.426;2023-04-23T09:49:09;26.50;44.40
49731;DHT22;35622;52.008;5.426;2023-04-23T09:51:45;25.70;43.10
49731;DHT22;35622;52.008;5.426;2023-04-23T09:54:17;25.30;44.80
49731;DHT22;35622;52.008;5.426;2023-04-23T09:56:53;25.70;45.70
49731;DHT22;35622;52.008;5.426;2023-04-23T09:59:26;26.40;41.70
49731;DHT22;35622;52.008;5.426;2023-04-23T10:01:52;26.50;42.50
49731;DHT22;35622;52.008;5.426;2023-04-23T10:04:23;26.90;41.70
49731;DHT22;35622;52.008;5.426;2023-04-23T10:06:56;26.40;42.30
49731;DHT22;35622;52.008;5.426;2023-04-23T10:09:23;25.60;41.50
49731;DHT22;35622;52.008;5.426;2023-04-23T10:12:00;24.80;43.80
49731;DHT22;35622;52.008;5.426;2023-04-23T10:14:27;25.80;46.40
49731;DHT22;35622;52.008;5.426;2023-04-23T10:16:58;26.80;42.60
49731;DHT22;35622;52.008;5.426;2023-04-23T10:19:24;26.10;39.20
49731;DHT22;35622;52.008;5.426;2023-04-23T10:21:57;25.70;40.20
49731;DHT22;35622;52.008;5.426;2023-04-23T10:24:28;25.30;39.40
49731;DHT22;35622;52.008;5.426;2023-04-23T10:26:59;25.10;41.30
49731;DHT22;35622;52.008;5.426;2023-04-23T10:29:27;24.90;39.70
49731;DHT22;35622;52.008;5.426;2023-04-23T10:31:55;25.00;41.60
49731;DHT22;35622;52.008;5.426;2023-04-23T10:34:24;25.10;41.20
49731;DHT22;35622;52.008;5.426;2023-04-23T10:36:50;25.00;40.90
49731;DHT22;35622;52.008;5.426;2023-04-23T10:39:17;24.80;41.20
49731;DHT22;35622;52.008;5.426;2023-04-23T10:41:45;24.30;42.40
49731;DHT22;35622;52.008;5.426;2023-04-23T10:44:12;24.00;43.70
49731;DHT22;35622;52.008;5.426;2023-04-23T10:46:38;24.40;44.30
49731;DHT22;35622;52.008;5.426;2023-04-23T10:49:12;24.30;43.40
49731;DHT22;35622;52.008;5.426;2023-04-23T10:51:44;24.40;42.30
49731;DHT22;35622;52.008;5.426;2023-04-23T10:54:13;24.70;42.20
49731;DHT22;35622;52.008;5.426;2023-04-23T10:56:40;25.00;40.40
49731;DHT22;35622;52.008;5.426;2023-04-23T10:59:07;25.10;38.50
49731;DHT22;35622;52.008;5.426;2023-04-23T11:01:33;25.30;38.70
49731;DHT22;35622;52.008;5.426;2023-04-23T11:04:27;25.40;38.70
49731;DHT22;35622;52.008;5.426;2023-04-23T11:06:55;25.60;39.40
49731;DHT22;35622;52.008;5.426;2023-04-23T11:12:00;25.60;38.10
49731;DHT22;35622;52.008;5.426;2023-04-23T11:14:46;25.60;38.60
49731;DHT22;35622;52.008;5.426;2023-04-23T11:17:13;25.00;38.20
49731;DHT22;35622;52.008;5.426;2023-04-23T11:19:43;25.00;41.70
49731;DHT22;35622;52.008;5.426;2023-04-23T11:22:33;24.70;39.80
49731;DHT22;35622;52.008;5.426;2023-04-23T11:25:00;24.50;40.80
49731;DHT22;35622;52.008;5.426;2023-04-23T11:27:28;24.20;39.80
49731;DHT22;35622;52.008;5.426;2023-04-23T11:29:54;23.90;41.90
49731;DHT22;35622;52.008;5.426;2023-04-23T11:32:21;24.40;41.40
49731;DHT22;35622;52.008;5.426;2023-04-23T11:34:48;26.00;37.70
49731;DHT22;35622;52.008;5.426;2023-04-23T11:37:16;27.40;35.20
49731;DHT22;35622;52.008;5.426;2023-04-23T11:39:44;28.70;32.90
49731;DHT22;35622;52.008;5.426;2023-04-23T11:42:11;30.10;30.90
49731;DHT22;35622;52.008;5.426;2023-04-23T11:44:38;31.10;29.00
49731;DHT22;35622;52.008;5.426;2023-04-23T11:47:07;31.40;27.40
49731;DHT22;35622;52.008;5.426;2023-04-23T11:49:39;31.70;26.30
49731;DHT22;35622;52.008;5.426;2023-04-23T11:52:05;31.60;26.30
49731;DHT22;35622;52.008;5.426;2023-04-23T11:54:31;31.30;26.20
49731;DHT22;35622;52.008;5.426;2023-04-23T11:56:57;31.00;26.30
49731;DHT22;35622;52.008;5.426;2023-04-23T11:59:24;30.80;27.10
49731;DHT22;35622;52.008;5.426;2023-04-23T12:01:55;30.80;27.50
49731;DHT22;35622;52.008;5.426;2023-04-23T12:04:23;30.70;28.50
49731;DHT22;35622;52.008;5.426;2023-04-23T12:06:51;30.40;28.10
49731;DHT22;35622;52.008;5.426;2023-04-23T12:09:18;29.90;27.50
49731;DHT22;35622;52.008;5.426;2023-04-23T12:11:44;29.70;27.80
49731;DHT22;35622;52.008;5.426;2023-04-23T12:14:11;29.50;28.30
49731;DHT22;35622;52.008;5.426;2023-04-23T12:16:44;29.30;29.00
49731;DHT22;35622;52.008;5.426;2023-04-23T12:19:16;29.40;29.10
49731;DHT22;35622;52.008;5.426;2023-04-23T12:24:23;30.40;27.60
49731;DHT22;35622;52.008;5.426;2023-04-23T12:26:52;30.70;28.20
49731;DHT22;35622;52.008;5.426;2023-04-23T12:29:28;30.50;27.40
49731;DHT22;35622;52.008;5.426;2023-04-23T12:31:58;30.20;27.70
49731;DHT22;35622;52.008;5.426;2023-04-23T12:34:24;30.00;27.30
49731;DHT22;35622;52.008;5.426;2023-04-23T12:36:51;29.80;27.80
49731;DHT22;35622;52.008;5.426;2023-04-23T12:41:43;30.60;27.40
49731;DHT22;35622;52.008;5.426;2023-04-23T12:44:09;30.30;27.50
49731;DHT22;35622;52.008;5.426;2023-04-23T12:46:35;29.90;27.80
49731;DHT22;35622;52.008;5.426;2023-04-23T12:49:01;29.60;28.30
49731;DHT22;35622;52.008;5.426;2023-04-23T12:51:26;29.40;28.30
49731;DHT22;35622;52.008;5.426;2023-04-23T12:53:52;29.30;28.30
49731;DHT22;35622;52.008;5.426;2023-04-23T12:56:17;29.40;28.90
49731;DHT22;35622;52.008;5.426;2023-04-23T12:58:43;29.40;28.90
49731;DHT22;35622;52.008;5.426;2023-04-23T13:01:08;29.30;28.10
49731;DHT22;35622;52.008;5.426;2023-04-23T13:03:35;29.00;28.60
49731;DHT22;35622;52.008;5.426;2023-04-23T13:06:01;28.60;29.00
49731;DHT22;35622;52.008;5.426;2023-04-23T13:08:27;28.30;29.30
49731;DHT22;35622;52.008;5.426;2023-04-23T13:10:52;27.90;29.90
49731;DHT22;35622;52.008;5.426;2023-04-23T13:13:35;27.90;30.60
49731;DHT22;35622;52.008;5.426;2023-04-23T13:16:01;27.80;31.10
49731;DHT22;35622;52.008;5.426;2023-04-23T13:18:27;27.60;30.60
49731;DHT22;35622;52.008;5.426;2023-04-23T13:20:52;27.50;30.50
49731;DHT22;35622;52.008;5.426;2023-04-23T13:23:18;26.70;30.30
49731;DHT22;35622;52.008;5.426;2023-04-23T13:25:43;26.40;33.30
49731;DHT22;35622;52.008;5.426;2023-04-23T13:28:09;26.30;32.10
49731;DHT22;35622;52.008;5.426;2023-04-23T13:30:48;26.30;32.40
49731;DHT22;35622;52.008;5.426;2023-04-23T13:33:14;26.40;32.50
49731;DHT22;35622;52.008;5.426;2023-04-23T13:35:40;26.40;32.30
49731;DHT22;35622;52.008;5.426;2023-04-23T13:38:05;26.20;32.00
49731;DHT22;35622;52.008;5.426;2023-04-23T13:40:31;26.10;32.10
49731;DHT22;35622;52.008;5.426;2023-04-23T13:42:58;26.10;32.90
49731;DHT22;35622;52.008;5.426;2023-04-23T13:45:24;26.10;33.20
49731;DHT22;35622;52.008;5.426;2023-04-23T13:47:50;26.10;33.00
49731;DHT22;35622;52.008;5.426;2023-04-23T13:50:15;26.10;33.10
49731;DHT22;35622;52.008;5.426;2023-04-23T13:52:41;26.10;32.90
49731;DHT22;35622;52.008;5.426;2023-04-23T13:55:07;26.10;33.00
49731;DHT22;35622;52.008;5.426;2023-04-23T13:57:34;25.70;33.10
49731;DHT22;35622;52.008;5.426;2023-04-23T13:59:59;25.80;33.60
49731;DHT22;35622;52.008;5.426;2023-04-23T14:02:25;25.70;33.40
49731;DHT22;35622;52.008;5.426;2023-04-23T14:04:51;25.70;33.70
49731;DHT22;35622;52.008;5.426;2023-04-23T14:07:16;25.40;33.90
49731;DHT22;35622;52.008;5.426;2023-04-23T14:09:42;24.70;34.50
49731;DHT22;35622;52.008;5.426;2023-04-23T14:12:08;24.60;35.00
49731;DHT22;35622;52.008;5.426;2023-04-23T14:14:34;24.40;36.10
49731;DHT22;35622;52.008;5.426;2023-04-23T14:17:00;24.30;37.00
49731;DHT22;35622;52.008;5.426;2023-04-23T14:19:25;24.00;37.30
49731;DHT22;35622;52.008;5.426;2023-04-23T14:21:51;23.90;37.20
49731;DHT22;35622;52.008;5.426;2023-04-23T14:24:21;23.80;38.30
49731;DHT22;35622;52.008;5.426;2023-04-23T14:26:48;23.60;38.40
49731;DHT22;35622;52.008;5.426;2023-04-23T14:29:49;23.60;38.40
49731;DHT22;35622;52.008;5.426;2023-04-23T14:32:15;23.60;38.20
49731;DHT22;35622;52.008;5.426;2023-04-23T14:34:41;23.50;38.70
49731;DHT22;35622;52.008;5.426;2023-04-23T14:37:06;23.50;39.40
49731;DHT22;35622;52.008;5.426;2023-04-23T14:39:32;23.50;39.70
49731;DHT22;35622;52.008;5.426;2023-04-23T14:41:58;23.50;40.90
49731;DHT22;35622;52.008;5.426;2023-04-23T14:44:24;23.30;42.20
49731;DHT22;35622;52.008;5.426;2023-04-23T14:46:51;23.10;43.10
49731;DHT22;35622;52.008;5.426;2023-04-23T14:49:17;23.00;44.10
49731;DHT22;35622;52.008;5.426;2023-04-23T14:51:45;22.70;45.50
49731;DHT22;35622;52.008;5.426;2023-04-23T14:54:11;22.40;46.60
49731;DHT22;35622;52.008;5.426;2023-04-23T14:56:36;22.20;48.20
49731;DHT22;35622;52.008;5.426;2023-04-23T14:59:02;21.80;49.10
49731;DHT22;35622;52.008;5.426;2023-04-23T15:01:29;21.40;50.30
49731;DHT22;35622;52.008;5.426;2023-04-23T15:03:55;21.00;51.00
49731;DHT22;35622;52.008;5.426;2023-04-23T15:06:21;20.70;52.10
49731;DHT22;35622;52.008;5.426;2023-04-23T15:08:46;20.40;52.90
49731;DHT22;35622;52.008;5.426;2023-04-23T15:11:12;20.00;53.80
49731;DHT22;35622;52.008;5.426;2023-04-23T15:14:17;19.80;54.90
49731;DHT22;35622;52.008;5.426;2023-04-23T15:16:44;19.50;55.80
49731;DHT22;35622;52.008;5.426;2023-04-23T15:19:10;19.30;56.80
49731;DHT22;35622;52.008;5.426;2023-04-23T15:21:36;19.20;57.50
49731;DHT22;35622;52.008;5.426;2023-04-23T15:24:01;19.10;58.20
49731;DHT22;35622;52.008;5.426;2023-04-23T15:26:27;19.10;58.90
49731;DHT22;35622;52.008;5.426;2023-04-23T15:28:54;18.90;59.60
49731;DHT22;35622;52.008;5.426;2023-04-23T15:31:20;18.80;60.30
49731;DHT22;35622;52.008;5.426;2023-04-23T15:33:45;18.70;61.20
49731;DHT22;35622;52.008;5.426;2023-04-23T15:36:12;18.60;61.80
49731;DHT22;35622;52.008;5.426;2023-04-23T15:38:37;18.60;62.70
49731;DHT22;35622;52.008;5.426;2023-04-23T15:41:04;18.50;63.60
49731;DHT22;35622;52.008;5.426;2023-04-23T15:43:30;18.30;64.40